createdAt,value
2023-02-11T00:01:28.947Z,-3.49
2023-02-11T00:03:56.602Z,-3.47
2023-02-11T00:06:24.187Z,-3.47
2023-02-11T00:08:50.943Z,-3.71
2023-02-11T00:11:20.656Z,-3.52
2023-02-11T00:13:48.174Z,-3.64
2023-02-11T00:16:17.789Z,-3.61
2023-02-11T00:18:45.544Z,-3.61
2023-02-11T00:21:17.858Z,-3.61
2023-02-11T00:23:49.167Z,-3.67
2023-02-11T00:26:24.803Z,-3.65
2023-02-11T00:28:52.234Z,-3.68
2023-02-11T00:31:20.754Z,-3.77
2023-02-11T00:33:48.129Z,-3.77
2023-02-11T00:36:22.490Z,-3.79
2023-02-11T00:38:50.851Z,-3.79
2023-02-11T00:41:18.508Z,-3.85
2023-02-11T00:43:45.301Z,-3.97
2023-02-11T00:46:12.097Z,-4.01
2023-02-11T00:48:41.816Z,-3.83
2023-02-11T00:51:08.804Z,-3.86
2023-02-11T00:53:35.678Z,-3.87
2023-02-11T00:56:02.682Z,-3.87
2023-02-11T00:58:30.929Z,-3.89
2023-02-11T01:00:58.607Z,-3.93
2023-02-11T01:03:25.428Z,-4.02
2023-02-11T01:05:52.581Z,-3.97
2023-02-11T01:08:19.906Z,-3.93
2023-02-11T01:10:54.389Z,-3.89
2023-02-11T01:13:20.987Z,-3.85
2023-02-11T01:15:47.833Z,-3.89
2023-02-11T01:18:14.628Z,-3.82
2023-02-11T01:20:41.217Z,-3.94
2023-02-11T01:23:07.959Z,-3.87
2023-02-11T01:25:34.591Z,-3.87
2023-02-11T01:28:01.181Z,-3.81
2023-02-11T01:30:27.827Z,-3.79
2023-02-11T01:32:54.568Z,-3.84
2023-02-11T01:35:21.152Z,-3.86
2023-02-11T01:37:47.749Z,-3.98
2023-02-11T01:40:16.980Z,-3.86
2023-02-11T01:42:44.620Z,-3.91
2023-02-11T01:45:42.242Z,-3.94
2023-02-11T01:48:12.761Z,-3.99
2023-02-11T01:50:41.339Z,-4.05
2023-02-11T01:53:28.159Z,-3.97
2023-02-11T01:56:14.437Z,-3.98
2023-02-11T01:58:44.590Z,-3.96
2023-02-11T02:01:16.066Z,-3.90
2023-02-11T02:03:46.807Z,-3.96
2023-02-11T02:06:19.637Z,-3.90
2023-02-11T02:09:01.288Z,-3.87
2023-02-11T02:11:28.193Z,-3.89
2023-02-11T02:13:54.822Z,-3.78
2023-02-11T02:16:24.853Z,-3.85
2023-02-11T02:19:16.517Z,-3.74
2023-02-11T02:22:33.420Z,-3.72
2023-02-11T02:25:08.964Z,-3.71
2023-02-11T02:27:55.976Z,-3.67
2023-02-11T02:30:49.883Z,-3.61
2023-02-11T02:33:23.117Z,-3.56
2023-02-11T02:36:03.119Z,-3.69
2023-02-11T02:38:48.967Z,-3.62
2023-02-11T02:41:21.189Z,-3.53
2023-02-11T02:43:51.587Z,-3.48
2023-02-11T02:46:23.839Z,-3.42
2023-02-11T02:48:52.984Z,-3.44
2023-02-11T02:51:39.918Z,-3.42
2023-02-11T02:54:34.216Z,-3.42
2023-02-11T02:57:19.204Z,-3.37
2023-02-11T03:00:04.454Z,-3.32
2023-02-11T03:02:46.306Z,-3.42
2023-02-11T03:05:23.821Z,-3.28
2023-02-11T03:08:19.746Z,-3.31
2023-02-11T03:10:51.479Z,-3.52
2023-02-11T03:13:22.550Z,-3.25
2023-02-11T03:15:53.628Z,-3.29
2023-02-11T03:18:26.255Z,-3.36
2023-02-11T03:20:54.997Z,-3.30
2023-02-11T03:23:34.758Z,-3.36
2023-02-11T03:26:30.177Z,-3.25
2023-02-11T03:29:14.116Z,-3.28
2023-02-11T03:31:53.685Z,-3.38
2023-02-11T03:34:57.610Z,-3.21
2023-02-11T03:37:35.722Z,-3.18
2023-02-11T03:40:10.384Z,-3.29
2023-02-11T03:42:53.359Z,-3.21
2023-02-11T03:45:22.569Z,-3.28
2023-02-11T03:47:55.723Z,-3.12
2023-02-11T03:50:24.327Z,-3.12
2023-02-11T03:52:51.725Z,-3.14
2023-02-11T03:55:20.834Z,-3.32
2023-02-11T03:57:48.188Z,-3.06
2023-02-11T04:00:15.524Z,-3.15
2023-02-11T04:02:42.417Z,-3.03
2023-02-11T04:05:12.535Z,-2.95
2023-02-11T04:07:39.163Z,-2.97
2023-02-11T04:10:08.494Z,-2.99
2023-02-11T04:12:35.160Z,-2.96
2023-02-11T04:15:01.678Z,-2.91
2023-02-11T04:17:28.403Z,-2.98
2023-02-11T04:19:55.115Z,-2.99
2023-02-11T04:22:21.832Z,-2.91
2023-02-11T04:24:48.772Z,-2.84
2023-02-11T04:27:15.412Z,-2.79
2023-02-11T04:29:42.975Z,-2.87
2023-02-11T04:32:11.511Z,-2.89
2023-02-11T04:34:38.380Z,-2.97
2023-02-11T04:37:05.231Z,-2.81
2023-02-11T04:39:31.912Z,-3.03
2023-02-11T04:41:58.579Z,-2.82
2023-02-11T04:44:25.285Z,-2.89
2023-02-11T04:46:51.975Z,-2.92
2023-02-11T04:49:18.631Z,-2.79
2023-02-11T04:51:48.239Z,-2.78
2023-02-11T04:54:16.286Z,-2.86
2023-02-11T04:56:42.954Z,-2.79
2023-02-11T04:59:09.640Z,-2.83
2023-02-11T05:01:36.402Z,-2.90
2023-02-11T05:04:03.115Z,-2.87
2023-02-11T05:06:29.778Z,-2.98
2023-02-11T05:08:56.684Z,-3.02
2023-02-11T05:11:25.214Z,-2.82
2023-02-11T05:13:52.303Z,-2.83
2023-02-11T05:16:19.141Z,-2.81
2023-02-11T05:18:46.747Z,-2.89
2023-02-11T05:21:17.352Z,-2.85
2023-02-11T05:23:44.535Z,-2.80
2023-02-11T05:26:12.922Z,-2.82
2023-02-11T05:28:39.929Z,-2.81
2023-02-11T05:31:08.012Z,-2.77
2023-02-11T05:33:34.661Z,-2.93
2023-02-11T05:36:07.675Z,-2.78
2023-02-11T05:38:35.016Z,-2.79
2023-02-11T05:41:01.923Z,-2.81
2023-02-11T05:43:28.593Z,-2.81
2023-02-11T05:45:55.442Z,-2.86
2023-02-11T05:48:22.024Z,-2.75
2023-02-11T05:50:49.605Z,-2.83
2023-02-11T05:53:17.408Z,-2.94
2023-02-11T05:55:44.089Z,-2.80
2023-02-11T05:58:10.776Z,-3.18
2023-02-11T06:00:37.865Z,-2.82
2023-02-11T06:03:05.110Z,-2.75
2023-02-11T06:05:32.215Z,-2.76
2023-02-11T06:07:59.228Z,-2.79
2023-02-11T06:10:26.120Z,-2.86
2023-02-11T06:12:52.639Z,-2.91
2023-02-11T06:15:19.264Z,-2.86
2023-02-11T06:17:46.000Z,-2.91
2023-02-11T06:20:12.585Z,-2.83
2023-02-11T06:22:39.221Z,-2.81
2023-02-11T06:25:06.383Z,-2.89
2023-02-11T06:27:33.081Z,-2.85
2023-02-11T06:30:00.271Z,-2.73
2023-02-11T06:32:43.748Z,-2.78
2023-02-11T06:35:12.448Z,-2.75
2023-02-11T06:37:39.852Z,-2.71
2023-02-11T06:40:06.923Z,-2.70
2023-02-11T06:42:34.730Z,-2.78
2023-02-11T06:45:01.435Z,-2.63
2023-02-11T06:47:27.959Z,-2.61
2023-02-11T06:49:54.518Z,-2.88
2023-02-11T06:52:21.232Z,-2.68
2023-02-11T06:54:47.891Z,-2.49
2023-02-11T06:57:14.654Z,-2.46
2023-02-11T06:59:41.377Z,-2.54
2023-02-11T07:02:11.046Z,-2.46
2023-02-11T07:04:38.088Z,-2.32
2023-02-11T07:07:04.844Z,-2.21
2023-02-11T07:24:02.727Z,-1.81
2023-02-11T07:26:29.353Z,-1.67
2023-02-11T07:28:56.008Z,-1.58
2023-02-11T07:31:28.839Z,-1.43
2023-02-11T07:36:43.807Z,-1.65
2023-02-11T07:39:11.085Z,-1.15
2023-02-11T07:41:40.356Z,-1.65
2023-02-11T07:44:07.468Z,-1.18
2023-02-11T07:46:35.996Z,-0.87
2023-02-11T07:49:05.213Z,-0.23
2023-02-11T07:51:32.052Z,-0.43
2023-02-11T07:54:00.905Z,-0.58
2023-02-11T07:56:28.970Z,-0.48
2023-02-11T07:58:57.151Z,-0.25
2023-02-11T08:01:28.584Z,0.07
2023-02-11T08:04:05.006Z,-0.09
2023-02-11T08:06:36.230Z,-0.17
2023-02-11T08:09:15.296Z,-0.49
2023-02-11T08:11:42.408Z,-0.60
2023-02-11T08:14:09.844Z,0.05
2023-02-11T08:16:58.417Z,0.07
2023-02-11T08:19:30.512Z,-0.19
2023-02-11T08:22:06.695Z,-0.53
2023-02-11T08:24:42.614Z,-0.95
2023-02-11T08:27:11.944Z,-0.95
2023-02-11T08:30:05.521Z,-0.47
2023-02-11T08:32:34.863Z,0.13
2023-02-11T08:35:01.772Z,0.43
2023-02-11T08:37:29.162Z,0.57
2023-02-11T08:39:56.978Z,0.42
2023-02-11T08:42:23.596Z,0.20
2023-02-11T08:44:50.242Z,0.04
2023-02-11T08:47:16.864Z,-0.04
2023-02-11T08:49:43.647Z,0.19
2023-02-11T08:52:10.446Z,0.10
2023-02-11T08:54:38.150Z,0.27
2023-02-11T08:57:05.465Z,-0.11
2023-02-11T08:59:32.105Z,0.14
2023-02-11T09:01:58.785Z,0.36
2023-02-11T09:04:26.555Z,0.44
2023-02-11T09:06:53.194Z,0.44
2023-02-11T09:09:20.146Z,0.50
2023-02-11T09:11:46.835Z,0.34
2023-02-11T09:14:21.928Z,0.52
2023-02-11T09:16:49.096Z,0.46
2023-02-11T09:19:20.972Z,0.28
2023-02-11T09:21:49.179Z,0.52
2023-02-11T09:24:15.979Z,0.68
2023-02-11T09:26:53.537Z,0.71
2023-02-11T09:29:20.195Z,0.52
2023-02-11T09:31:46.897Z,0.69
2023-02-11T09:34:16.349Z,0.39
2023-02-11T09:36:43.068Z,0.51
2023-02-11T09:39:14.578Z,0.43
2023-02-11T09:41:54.884Z,0.83
2023-02-11T09:44:27.199Z,0.71
2023-02-11T09:47:17.031Z,0.88
2023-02-11T09:49:57.376Z,1.00
2023-02-11T09:52:35.748Z,1.14
2023-02-11T09:55:05.819Z,1.22
2023-02-11T09:57:35.556Z,1.28
2023-02-11T10:00:16.161Z,1.40
2023-02-11T10:02:55.510Z,1.44
2023-02-11T10:05:57.571Z,1.51
2023-02-11T10:08:44.128Z,1.63
2023-02-11T10:11:30.623Z,1.66
2023-02-11T10:14:39.948Z,1.81
2023-02-11T10:17:27.758Z,1.62
2023-02-11T10:20:07.812Z,1.54
2023-02-11T10:22:40.368Z,1.50
2023-02-11T10:25:40.674Z,1.61
2023-02-11T10:28:32.915Z,1.75
2023-02-11T10:31:10.591Z,1.87
2023-02-11T10:34:12.951Z,1.94
2023-02-11T10:36:45.518Z,1.85
2023-02-11T10:39:19.313Z,1.83
2023-02-11T10:42:13.193Z,1.68
2023-02-11T10:44:59.750Z,1.77
2023-02-11T10:47:32.886Z,1.92
2023-02-11T10:50:03.676Z,2.09
2023-02-11T10:52:30.876Z,2.35
2023-02-11T10:55:01.222Z,2.36
2023-02-11T10:57:44.682Z,2.58
2023-02-11T11:00:29.400Z,2.71
2023-02-11T11:02:58.911Z,2.84
2023-02-11T11:05:38.216Z,2.76
2023-02-11T11:08:07.769Z,2.59
2023-02-11T11:10:43.726Z,2.53
2023-02-11T11:13:35.667Z,2.37
2023-02-11T11:16:16.804Z,2.03
2023-02-11T11:18:49.264Z,2.12
2023-02-11T11:21:29.039Z,1.90
2023-02-11T11:24:01.347Z,1.66
2023-02-11T11:26:41.439Z,1.47
2023-02-11T11:29:16.278Z,1.56
2023-02-11T11:31:57.114Z,1.51
2023-02-11T11:34:50.271Z,1.48
2023-02-11T11:37:25.265Z,1.50
2023-02-11T11:40:07.779Z,1.49
2023-02-11T11:42:37.466Z,1.64
2023-02-11T11:45:27.189Z,1.58
2023-02-11T11:48:22.639Z,1.66
2023-02-11T11:51:02.091Z,1.28
2023-02-11T11:53:40.812Z,1.30
2023-02-11T11:56:21.969Z,1.24
2023-02-11T11:58:54.510Z,1.19
2023-02-11T12:01:52.187Z,1.16
2023-02-11T12:04:36.951Z,1.16
2023-02-11T12:07:06.519Z,1.22
2023-02-11T12:10:08.672Z,1.23
2023-02-11T12:13:00.651Z,1.20
2023-02-11T12:15:39.343Z,1.18
2023-02-11T12:18:25.931Z,1.18
2023-02-11T12:21:16.862Z,1.15
2023-02-11T12:24:08.386Z,1.10
2023-02-11T12:26:34.929Z,1.05
2023-02-11T12:29:19.986Z,1.00
2023-02-11T12:32:13.322Z,0.92
2023-02-11T12:35:12.520Z,0.88
2023-02-11T12:38:03.631Z,0.80
2023-02-11T12:40:45.853Z,0.72
2023-02-11T12:43:20.538Z,0.65
2023-02-11T12:46:05.225Z,0.55
2023-02-11T12:48:34.102Z,0.32
2023-02-11T12:51:13.081Z,0.19
2023-02-11T12:53:53.906Z,-0.22
2023-02-11T12:56:42.066Z,0.38
2023-02-11T12:59:31.240Z,0.30
2023-02-11T13:02:02.755Z,0.43
2023-02-11T13:04:37.980Z,0.39
2023-02-11T13:07:14.481Z,0.42
2023-02-11T13:09:48.896Z,0.36
2023-02-11T13:12:35.565Z,0.42
2023-02-11T13:15:07.132Z,0.50
2023-02-11T13:17:41.624Z,0.34
2023-02-11T13:20:23.438Z,0.44
2023-02-11T13:23:05.598Z,0.30
2023-02-11T13:25:53.242Z,0.10
2023-02-11T13:28:29.689Z,0.42
2023-02-11T13:31:03.150Z,0.26
2023-02-11T13:33:39.674Z,0.44
2023-02-11T13:36:06.282Z,0.47
2023-02-11T13:38:33.748Z,0.35
2023-02-11T13:41:06.946Z,0.38
2023-02-11T13:43:36.149Z,0.29
2023-02-11T13:46:10.236Z,0.29
2023-02-11T13:48:39.387Z,0.20
2023-02-11T13:51:17.088Z,0.20
2023-02-11T13:54:02.690Z,0.21
2023-02-11T13:56:39.359Z,0.19
2023-02-11T13:59:30.861Z,0.16
2023-02-11T14:02:19.220Z,0.12
2023-02-11T14:05:22.817Z,0.09
2023-02-11T14:08:31.598Z,0.06
2023-02-11T14:11:12.552Z,0.02
2023-02-11T14:13:48.760Z,0.08
2023-02-11T14:16:35.304Z,-0.02
2023-02-11T14:19:04.455Z,-0.04
2023-02-11T14:21:38.860Z,0.05
2023-02-11T14:24:07.188Z,0.05
2023-02-11T14:26:56.141Z,-0.01
2023-02-11T14:29:37.526Z,-0.11
2023-02-11T14:32:41.819Z,-0.07
2023-02-11T14:35:18.871Z,-0.13
2023-02-11T14:38:06.417Z,-0.33
2023-02-11T14:40:52.840Z,-0.35
2023-02-11T14:43:31.418Z,-0.27
2023-02-11T14:46:01.429Z,-0.30
2023-02-11T14:48:39.119Z,-0.22
2023-02-11T14:51:35.057Z,-0.26
2023-02-11T14:54:13.705Z,-0.33
2023-02-11T14:56:44.571Z,-0.28
2023-02-11T14:59:22.921Z,-0.36
2023-02-11T15:01:56.719Z,-0.43
2023-02-11T15:04:28.820Z,-0.33
2023-02-11T15:06:59.857Z,-0.48
2023-02-11T15:09:33.877Z,-0.33
2023-02-11T15:12:07.588Z,-0.33
2023-02-11T15:14:36.619Z,-0.34
2023-02-11T15:17:06.462Z,-0.33
2023-02-11T15:19:38.646Z,-0.39
2023-02-11T15:22:18.749Z,-0.37
2023-02-11T15:24:46.274Z,-0.40
2023-02-11T15:27:16.214Z,-0.40
2023-02-11T15:29:51.970Z,-0.38
2023-02-11T15:32:22.151Z,-0.46
2023-02-11T15:34:51.435Z,-0.37
2023-02-11T15:37:24.565Z,-0.40
2023-02-11T15:39:53.007Z,-0.48
2023-02-11T15:42:52.238Z,-0.42
2023-02-11T15:45:38.581Z,-0.41
2023-02-11T15:48:23.561Z,-0.47
2023-02-11T15:50:54.207Z,-0.41
2023-02-11T15:53:33.382Z,-0.40
2023-02-11T15:56:12.147Z,-0.41
2023-02-11T15:58:43.409Z,-0.49
2023-02-11T16:01:11.453Z,-0.64
2023-02-11T16:03:40.307Z,-0.40
2023-02-11T16:06:17.844Z,-0.41
2023-02-11T16:09:05.720Z,-0.47
2023-02-11T16:11:35.647Z,-0.51
2023-02-11T16:14:21.818Z,-0.76
2023-02-11T16:16:52.991Z,-0.55
2023-02-11T16:19:24.943Z,-0.50
2023-02-11T16:21:55.134Z,-0.51
2023-02-11T16:24:32.470Z,-0.55
2023-02-11T16:27:02.254Z,-0.64
2023-02-11T16:29:36.331Z,-0.55
2023-02-11T16:32:16.103Z,-0.54
2023-02-11T16:34:43.046Z,-0.71
2023-02-11T16:37:09.839Z,-0.60
2023-02-11T16:39:36.706Z,-0.63
2023-02-11T16:42:07.080Z,-0.57
2023-02-11T16:44:34.598Z,-0.57
2023-02-11T16:47:06.150Z,-0.79
2023-02-11T16:49:38.443Z,-0.65
2023-02-11T16:52:13.594Z,-0.74
2023-02-11T16:54:42.236Z,-0.79
2023-02-11T16:57:15.383Z,-0.68
2023-02-11T16:59:42.556Z,-0.62
2023-02-11T17:02:30.769Z,-0.58
2023-02-11T17:05:08.990Z,-0.64
2023-02-11T17:07:35.812Z,-0.52
2023-02-11T17:10:02.508Z,-0.70
2023-02-11T17:12:29.328Z,-0.50
2023-02-11T17:14:56.143Z,-0.48
2023-02-11T17:17:24.056Z,-0.47
2023-02-11T17:19:51.524Z,-0.45
2023-02-11T17:22:18.839Z,-0.48
2023-02-11T17:24:45.677Z,-0.55
2023-02-11T17:27:14.431Z,-0.44
2023-02-11T17:29:41.282Z,-0.49
2023-02-11T17:32:08.104Z,-0.62
2023-02-11T17:34:34.889Z,-0.43
2023-02-11T17:37:07.895Z,-0.51
2023-02-11T17:39:39.207Z,-0.38
2023-02-11T17:42:06.930Z,-0.61
2023-02-11T17:44:34.042Z,-0.40
2023-02-11T17:47:00.688Z,-0.45
2023-02-11T17:49:27.726Z,-0.44
2023-02-11T17:51:55.895Z,-0.42
2023-02-11T17:54:22.631Z,-0.58
2023-02-11T17:56:51.016Z,-0.89
2023-02-11T17:59:17.977Z,-0.41
2023-02-11T18:01:44.961Z,-0.47
2023-02-11T18:04:17.918Z,-0.51
2023-02-11T18:06:45.342Z,-0.53
2023-02-11T18:09:12.378Z,-0.56
2023-02-11T18:11:39.978Z,-0.74
2023-02-11T18:14:08.065Z,-0.47
2023-02-11T18:16:36.860Z,-0.38
2023-02-11T18:19:03.648Z,-0.38
2023-02-11T18:21:31.432Z,-0.36
2023-02-11T18:24:01.147Z,-0.25
2023-02-11T18:26:54.808Z,-0.23
2023-02-11T18:29:21.491Z,-0.24
2023-02-11T18:31:48.138Z,-0.42
2023-02-11T18:34:16.082Z,-0.20
2023-02-11T18:36:43.103Z,-0.36
2023-02-11T18:39:09.934Z,-0.13
2023-02-11T18:41:36.758Z,-0.14
2023-02-11T18:44:05.077Z,-0.22
2023-02-11T18:46:31.886Z,-0.16
2023-02-11T18:48:59.632Z,-0.14
2023-02-11T18:51:26.940Z,-0.03
2023-02-11T18:53:53.845Z,-0.05
2023-02-11T18:56:23.149Z,0.02
2023-02-11T18:58:51.646Z,-0.08
2023-02-11T19:01:49.479Z,0.11
2023-02-11T19:04:19.960Z,0.11
2023-02-11T19:06:49.524Z,0.17
2023-02-11T19:09:19.531Z,0.23
2023-02-11T19:11:54.130Z,0.23
2023-02-11T19:14:26.421Z,0.26
2023-02-11T19:16:58.028Z,0.18
2023-02-11T19:19:28.315Z,0.31
2023-02-11T19:21:55.883Z,0.29
2023-02-11T19:24:23.508Z,0.15
2023-02-11T19:26:52.575Z,0.37
2023-02-11T19:29:19.850Z,0.21
2023-02-11T19:31:46.903Z,0.27
2023-02-11T19:34:15.827Z,0.42
2023-02-11T19:36:43.111Z,0.43
2023-02-11T19:39:10.577Z,0.27
2023-02-11T19:41:37.503Z,0.43
2023-02-11T19:44:05.566Z,0.48
2023-02-11T19:46:35.345Z,0.32
2023-02-11T19:49:03.876Z,0.47
2023-02-11T19:51:32.804Z,0.40
2023-02-11T19:54:00.475Z,0.50
2023-02-11T19:56:30.766Z,0.50
2023-02-11T19:58:58.211Z,0.49
2023-02-11T20:01:26.010Z,0.59
2023-02-11T20:03:55.023Z,0.38
2023-02-11T20:06:25.209Z,0.63
2023-02-11T20:08:59.679Z,0.60
2023-02-11T20:11:31.143Z,0.62
2023-02-11T20:13:59.047Z,0.60
2023-02-11T20:16:46.176Z,0.62
2023-02-11T20:19:19.481Z,0.59
2023-02-11T20:21:48.727Z,0.70
2023-02-11T20:24:19.185Z,0.62
2023-02-11T20:26:48.688Z,0.79
2023-02-11T20:29:17.427Z,0.77
2023-02-11T20:31:44.318Z,0.80
2023-02-11T20:34:12.424Z,0.77
2023-02-11T20:36:40.759Z,0.82
2023-02-11T20:39:08.486Z,0.81
2023-02-11T20:41:39.389Z,0.88
2023-02-11T20:44:08.979Z,0.86
2023-02-11T20:46:40.068Z,0.81
2023-02-11T20:49:08.913Z,0.95
2023-02-11T20:51:37.379Z,0.90
2023-02-11T20:54:06.477Z,0.76
2023-02-11T20:56:36.935Z,0.84
2023-02-11T20:59:04.788Z,0.94
2023-02-11T21:01:37.823Z,0.97
2023-02-11T21:04:10.880Z,0.91
2023-02-11T21:06:40.347Z,0.86
2023-02-11T21:09:09.436Z,0.97
2023-02-11T21:11:36.178Z,0.79
2023-02-11T21:14:03.294Z,1.00
2023-02-11T21:16:30.010Z,0.94
2023-02-11T21:18:57.089Z,0.94
2023-02-11T21:21:24.512Z,0.96
2023-02-11T21:23:51.240Z,0.98
2023-02-11T21:26:18.095Z,1.01
2023-02-11T21:28:44.936Z,0.97
2023-02-11T21:31:21.774Z,0.96
2023-02-11T21:33:49.634Z,0.86
2023-02-11T21:36:16.373Z,1.00
2023-02-11T21:38:43.014Z,1.03
2023-02-11T21:41:09.950Z,1.08
2023-02-11T21:43:36.579Z,1.09
2023-02-11T21:46:09.184Z,1.10
2023-02-11T21:48:36.162Z,1.01
2023-02-11T21:51:07.816Z,1.12
2023-02-11T21:53:35.046Z,1.03
2023-02-11T21:56:22.802Z,1.04
2023-02-11T21:58:53.195Z,1.08
2023-02-11T22:01:25.556Z,1.14
2023-02-11T22:03:52.797Z,1.12
2023-02-11T22:06:23.523Z,1.14
2023-02-11T22:08:50.118Z,1.10
2023-02-11T22:11:17.135Z,1.10
2023-02-11T22:13:43.893Z,0.94
2023-02-11T22:16:14.317Z,1.05
2023-02-11T22:18:41.302Z,1.14
2023-02-11T22:21:11.472Z,1.18
2023-02-11T22:23:38.983Z,0.83
2023-02-11T22:26:12.620Z,1.14
2023-02-11T22:28:40.629Z,1.18
2023-02-11T22:31:11.498Z,0.95
2023-02-11T22:33:38.200Z,1.14
2023-02-11T22:36:08.719Z,1.17
2023-02-11T22:38:35.756Z,0.80
2023-02-11T22:41:06.798Z,1.07
2023-02-11T22:43:33.405Z,1.28
2023-02-11T22:46:04.654Z,1.24
2023-02-11T22:48:31.683Z,1.22
2023-02-11T22:51:04.850Z,1.12
2023-02-11T22:53:31.436Z,1.23
2023-02-11T22:56:05.467Z,1.17
2023-02-11T22:58:35.536Z,1.21
2023-02-11T23:01:05.383Z,1.25
2023-02-11T23:03:33.831Z,1.30
2023-02-11T23:06:01.113Z,1.28
2023-02-11T23:08:28.564Z,1.30
2023-02-11T23:10:56.398Z,1.14
2023-02-11T23:13:23.159Z,1.27
2023-02-11T23:15:49.834Z,1.27
2023-02-11T23:18:16.494Z,1.26
2023-02-11T23:20:44.135Z,1.23
2023-02-11T23:23:10.939Z,1.23
2023-02-11T23:25:45.102Z,1.15
2023-02-11T23:28:12.829Z,1.25
2023-02-11T23:30:39.660Z,1.16
2023-02-11T23:33:06.360Z,1.22
2023-02-11T23:35:33.297Z,1.27
2023-02-11T23:38:00.053Z,1.21
2023-02-11T23:40:26.762Z,1.07
2023-02-11T23:42:53.493Z,1.18
2023-02-11T23:45:20.211Z,1.13
2023-02-11T23:47:47.728Z,1.15
2023-02-11T23:50:14.784Z,1.26
2023-02-11T23:52:41.550Z,1.23
2023-02-11T23:55:08.964Z,1.28
2023-02-11T23:57:36.127Z,1.19
